createdAt,value
2019-01-18T00:01:38.699Z,1.60
2019-01-18T00:04:08.006Z,1.67
2019-01-18T00:06:37.290Z,1.50
2019-01-18T00:09:08.524Z,1.30
2019-01-18T00:11:37.825Z,1.50
2019-01-18T00:14:07.136Z,1.60
2019-01-18T00:16:36.917Z,1.97
2019-01-18T00:19:08.013Z,1.57
2019-01-18T00:21:37.334Z,1.90
2019-01-18T00:24:06.738Z,2.00
2019-01-18T00:26:36.071Z,1.87
2019-01-18T00:29:05.336Z,1.97
2019-01-18T00:31:34.606Z,1.83
2019-01-18T00:34:03.973Z,2.27
2019-01-18T00:36:33.257Z,2.43
2019-01-18T00:39:02.511Z,2.70
2019-01-18T00:41:31.790Z,2.30
2019-01-18T00:44:01.090Z,2.47
2019-01-18T00:46:30.342Z,2.20
2019-01-18T00:48:59.712Z,2.10
2019-01-18T00:51:28.957Z,2.30
2019-01-18T00:53:58.240Z,2.83
2019-01-18T00:56:27.520Z,2.53
2019-01-18T00:58:56.821Z,1.83
2019-01-18T01:01:26.082Z,2.53
2019-01-18T01:03:55.345Z,1.83
2019-01-18T01:06:24.619Z,1.83
2019-01-18T01:08:54.899Z,2.37
2019-01-18T01:11:24.377Z,1.83
2019-01-18T01:13:53.714Z,1.60
2019-01-18T01:16:23.002Z,1.30
2019-01-18T01:18:52.270Z,1.40
2019-01-18T01:21:21.662Z,1.23
2019-01-18T01:23:50.929Z,1.37
2019-01-18T01:26:20.200Z,1.70
2019-01-18T01:28:49.470Z,1.47
2019-01-18T01:31:18.730Z,1.40
2019-01-18T01:33:48.023Z,1.33
2019-01-18T01:36:17.297Z,1.53
2019-01-18T01:38:46.558Z,2.07
2019-01-18T01:41:15.835Z,2.20
2019-01-18T01:43:45.094Z,1.90
2019-01-18T01:46:14.367Z,1.60
2019-01-18T01:48:43.619Z,1.50
2019-01-18T01:51:12.891Z,1.87
2019-01-18T01:53:43.258Z,2.00
2019-01-18T01:56:12.542Z,2.07
2019-01-18T01:58:41.795Z,2.10
2019-01-18T02:01:11.053Z,2.33
2019-01-18T02:03:40.318Z,2.30
2019-01-18T02:06:09.579Z,2.50
2019-01-18T02:08:38.881Z,2.77
2019-01-18T02:11:08.138Z,2.70
2019-01-18T02:13:39.221Z,1.97
2019-01-18T02:16:08.495Z,2.63
2019-01-18T02:18:37.752Z,2.93
2019-01-18T02:21:07.042Z,2.20
2019-01-18T02:23:36.337Z,2.93
2019-01-18T02:26:05.956Z,2.37
2019-01-18T02:28:35.217Z,2.20
2019-01-18T02:31:04.485Z,2.37
2019-01-18T02:33:33.761Z,2.37
2019-01-18T02:36:03.045Z,2.27
2019-01-18T02:38:32.298Z,2.23
2019-01-18T02:41:01.557Z,2.27
2019-01-18T02:43:30.837Z,2.20
2019-01-18T02:46:00.103Z,2.23
2019-01-18T02:48:30.575Z,2.00
2019-01-18T02:50:59.835Z,2.47
2019-01-18T02:53:29.109Z,2.40
2019-01-18T02:55:58.371Z,2.27
2019-01-18T02:58:28.649Z,2.13
2019-01-18T03:00:57.925Z,2.50
2019-01-18T03:03:27.180Z,2.23
2019-01-18T03:05:56.490Z,2.37
2019-01-18T03:08:26.844Z,1.97
2019-01-18T03:10:56.138Z,2.03
2019-01-18T03:13:25.413Z,2.43
2019-01-18T03:15:54.720Z,2.30
2019-01-18T03:18:23.991Z,1.80
2019-01-18T03:20:53.267Z,2.10
2019-01-18T03:23:22.516Z,1.73
2019-01-18T03:25:51.786Z,2.13
2019-01-18T03:28:21.125Z,2.13
2019-01-18T03:30:50.379Z,2.10
2019-01-18T03:33:19.644Z,1.97
2019-01-18T03:35:48.889Z,1.90
2019-01-18T03:38:18.166Z,2.53
2019-01-18T03:40:47.413Z,2.50
2019-01-18T03:43:16.686Z,2.10
2019-01-18T03:45:45.951Z,2.30
2019-01-18T03:48:15.265Z,2.30
2019-01-18T03:50:44.519Z,1.90
2019-01-18T03:53:13.770Z,2.47
2019-01-18T03:55:43.051Z,2.00
2019-01-18T03:58:12.315Z,1.90
2019-01-18T04:00:41.601Z,2.43
2019-01-18T04:03:10.859Z,2.60
2019-01-18T04:05:40.155Z,2.70
2019-01-18T04:08:09.421Z,2.03
2019-01-18T04:10:38.691Z,2.00
2019-01-18T04:13:07.967Z,2.53
2019-01-18T04:15:37.239Z,2.43
2019-01-18T04:18:06.738Z,2.83
2019-01-18T04:20:36.377Z,3.13
2019-01-18T04:23:05.732Z,2.73
2019-01-18T04:25:35.225Z,2.20
2019-01-18T04:28:04.702Z,2.53
2019-01-18T04:30:33.956Z,2.30
2019-01-18T04:33:03.268Z,2.57
2019-01-18T04:35:32.525Z,2.20
2019-01-18T04:38:01.795Z,3.00
2019-01-18T04:40:31.127Z,2.60
2019-01-18T04:43:00.337Z,2.93
2019-01-18T04:45:29.677Z,3.13
2019-01-18T04:47:58.953Z,2.10
2019-01-18T04:50:29.226Z,2.50
2019-01-18T04:52:58.525Z,2.30
2019-01-18T04:55:27.774Z,2.77
2019-01-18T04:57:57.046Z,3.30
2019-01-18T05:00:28.312Z,2.97
2019-01-18T05:02:57.606Z,2.93
2019-01-18T05:05:27.175Z,2.97
2019-01-18T05:07:56.440Z,2.50
2019-01-18T05:10:27.518Z,2.47
2019-01-18T05:12:56.837Z,2.80
2019-01-18T05:15:31.401Z,2.60
2019-01-18T05:18:00.659Z,2.50
2019-01-18T05:20:30.014Z,2.80
2019-01-18T05:22:59.282Z,2.67
2019-01-18T05:25:28.556Z,2.50
2019-01-18T05:27:57.842Z,3.00
2019-01-18T05:30:28.830Z,3.53
2019-01-18T05:32:58.185Z,3.30
2019-01-18T05:35:27.566Z,3.30
2019-01-18T05:37:57.046Z,3.30
2019-01-18T05:40:26.334Z,3.70
2019-01-18T05:42:55.587Z,3.00
2019-01-18T05:45:24.878Z,3.20
2019-01-18T05:47:54.200Z,3.57
2019-01-18T05:50:25.722Z,3.83
2019-01-18T05:52:56.467Z,3.00
2019-01-18T05:55:25.727Z,3.50
2019-01-18T05:57:56.958Z,3.10
2019-01-18T06:00:46.939Z,4.17
2019-01-18T06:03:16.259Z,3.20
2019-01-18T06:05:47.875Z,3.37
2019-01-18T06:08:17.325Z,3.70
2019-01-18T06:10:49.163Z,4.00
2019-01-18T06:13:19.941Z,3.97
2019-01-18T06:15:50.329Z,3.40
2019-01-18T06:18:21.556Z,3.40
2019-01-18T06:20:51.255Z,3.90
2019-01-18T06:23:20.763Z,3.63
2019-01-18T06:25:50.501Z,3.93
2019-01-18T06:28:20.154Z,4.23
2019-01-18T06:30:49.690Z,4.80
2019-01-18T06:33:19.177Z,4.67
2019-01-18T06:35:48.847Z,4.87
2019-01-18T06:38:18.395Z,4.73
2019-01-18T06:40:49.257Z,4.33
2019-01-18T06:43:18.848Z,4.57
2019-01-18T06:45:48.266Z,4.67
2019-01-18T06:48:21.460Z,4.10
2019-01-18T06:50:51.099Z,4.43
2019-01-18T06:53:20.817Z,4.97
2019-01-18T06:55:50.971Z,4.20
2019-01-18T06:58:20.576Z,4.20
2019-01-18T07:00:50.125Z,4.50
2019-01-18T07:03:19.571Z,3.93
2019-01-18T07:05:50.318Z,3.87
2019-01-18T07:08:19.584Z,5.17
2019-01-18T07:10:48.841Z,3.57
2019-01-18T07:13:18.153Z,4.07
2019-01-18T07:15:47.436Z,4.00
2019-01-18T07:18:16.704Z,4.07
2019-01-18T07:20:45.946Z,3.77
2019-01-18T07:23:15.233Z,3.70
2019-01-18T07:25:44.512Z,3.90
2019-01-18T07:28:13.766Z,3.43
2019-01-18T07:30:43.874Z,3.80
2019-01-18T07:33:15.139Z,3.70
2019-01-18T07:35:44.431Z,4.53
2019-01-18T07:38:13.675Z,3.83
2019-01-18T07:40:42.955Z,4.40
2019-01-18T07:43:12.218Z,4.27
2019-01-18T07:45:41.495Z,3.70
2019-01-18T07:48:10.789Z,3.60
2019-01-18T07:50:40.048Z,4.13
2019-01-18T07:53:09.443Z,4.07
2019-01-18T07:55:38.697Z,3.93
2019-01-18T07:58:08.007Z,4.00
2019-01-18T08:00:37.293Z,4.27
2019-01-18T08:03:06.558Z,4.33
2019-01-18T08:05:35.822Z,4.07
2019-01-18T08:08:05.707Z,4.23
2019-01-18T08:10:34.984Z,3.97
2019-01-18T08:13:05.050Z,4.47
2019-01-18T08:15:34.354Z,3.67
2019-01-18T08:18:03.611Z,3.93
2019-01-18T08:20:32.862Z,3.93
2019-01-18T08:23:02.998Z,3.80
2019-01-18T08:25:32.259Z,4.07
2019-01-18T08:28:02.224Z,3.27
2019-01-18T08:30:32.326Z,3.10
2019-01-18T08:33:01.611Z,3.23
2019-01-18T08:35:31.772Z,2.90
2019-01-18T08:38:01.266Z,3.50
2019-01-18T08:40:32.969Z,3.60
2019-01-18T08:43:02.320Z,3.50
2019-01-18T08:45:43.456Z,3.67
2019-01-18T08:48:12.726Z,3.50
2019-01-18T08:50:42.738Z,3.10
2019-01-18T08:53:12.024Z,3.40
2019-01-18T08:55:41.274Z,2.90
2019-01-18T08:58:10.557Z,4.03
2019-01-18T09:00:39.815Z,3.30
2019-01-18T09:03:09.202Z,4.00
2019-01-18T09:05:38.504Z,2.77
2019-01-18T09:08:07.763Z,3.60
2019-01-18T09:10:41.169Z,3.40
2019-01-18T09:13:13.843Z,4.40
2019-01-18T09:15:46.236Z,3.40
2019-01-18T09:18:15.607Z,8.20
2019-01-18T09:20:44.942Z,3.40
2019-01-18T09:23:14.201Z,2.63
2019-01-18T09:25:43.494Z,2.83
2019-01-18T09:28:12.743Z,2.63
2019-01-18T09:30:41.995Z,2.73
2019-01-18T09:33:11.310Z,3.23
2019-01-18T09:35:41.579Z,3.33
2019-01-18T09:38:17.851Z,3.03
2019-01-18T09:40:46.988Z,3.73
2019-01-18T09:43:17.719Z,3.33
2019-01-18T09:45:46.995Z,3.67
2019-01-18T09:48:16.245Z,3.43
2019-01-18T09:50:45.519Z,2.90
2019-01-18T09:53:14.909Z,4.23
2019-01-18T09:55:44.193Z,3.50
2019-01-18T09:58:13.453Z,3.80
2019-01-18T10:00:42.811Z,3.97
2019-01-18T10:03:12.085Z,2.57
2019-01-18T10:05:41.345Z,2.70
2019-01-18T10:08:12.115Z,2.23
2019-01-18T10:10:41.781Z,2.00
2019-01-18T10:13:11.042Z,3.30
2019-01-18T10:15:45.411Z,1.93
2019-01-18T10:18:15.215Z,2.40
2019-01-18T10:20:44.517Z,2.33
2019-01-18T10:23:13.790Z,1.87
2019-01-18T10:25:43.087Z,2.50
2019-01-18T10:28:13.782Z,1.50
2019-01-18T10:30:44.354Z,1.97
2019-01-18T10:33:13.730Z,2.60
2019-01-18T10:35:43.018Z,2.90
2019-01-18T10:38:12.385Z,1.90
2019-01-18T10:40:41.639Z,3.37
2019-01-18T10:43:10.915Z,2.47
2019-01-18T10:45:40.275Z,2.17
2019-01-18T10:48:09.555Z,1.90
2019-01-18T10:50:38.807Z,2.50
2019-01-18T10:53:08.104Z,2.67
2019-01-18T10:55:37.347Z,3.27
2019-01-18T10:58:06.600Z,2.23
2019-01-18T11:00:37.371Z,2.10
2019-01-18T11:03:07.169Z,2.10
2019-01-18T11:05:36.454Z,2.47
2019-01-18T11:08:05.727Z,3.50
2019-01-18T11:10:35.149Z,1.90
2019-01-18T11:13:04.509Z,1.80
2019-01-18T11:15:35.939Z,1.57
2019-01-18T11:18:05.929Z,1.73
2019-01-18T11:20:45.568Z,1.90
2019-01-18T11:23:14.850Z,2.10
2019-01-18T11:25:44.204Z,1.70
2019-01-18T11:28:13.581Z,1.50
2019-01-18T11:30:42.837Z,1.53
2019-01-18T11:33:12.117Z,1.80
2019-01-18T11:35:41.484Z,2.07
2019-01-18T11:38:10.861Z,1.50
2019-01-18T11:40:40.162Z,2.10
2019-01-18T11:43:09.450Z,1.87
2019-01-18T11:45:38.722Z,2.33
2019-01-18T11:48:08.992Z,2.13
2019-01-18T11:50:38.309Z,2.07
2019-01-18T11:53:07.556Z,2.60
2019-01-18T11:55:36.853Z,2.27
2019-01-18T11:58:06.683Z,2.10
2019-01-18T12:00:37.923Z,1.90
2019-01-18T12:03:07.208Z,1.77
2019-01-18T12:05:36.642Z,1.80
2019-01-18T12:08:06.179Z,2.00
2019-01-18T12:10:35.489Z,1.70
2019-01-18T12:13:05.168Z,1.90
2019-01-18T12:15:34.461Z,1.53
2019-01-18T12:18:03.807Z,1.83
2019-01-18T12:20:37.252Z,2.07
2019-01-18T12:23:07.521Z,1.90
2019-01-18T12:25:36.900Z,1.93
2019-01-18T12:28:06.840Z,1.70
2019-01-18T12:30:37.370Z,2.10
2019-01-18T12:33:06.721Z,1.93
2019-01-18T12:35:36.002Z,1.73
2019-01-18T12:38:05.704Z,1.43
2019-01-18T12:40:35.063Z,1.20
2019-01-18T12:43:04.410Z,1.30
2019-01-18T12:45:35.084Z,1.20
2019-01-18T12:48:05.534Z,1.20
2019-01-18T12:50:39.928Z,1.30
2019-01-18T12:53:09.959Z,1.43
2019-01-18T12:55:39.333Z,1.67
2019-01-18T12:58:08.781Z,1.57
2019-01-18T13:00:38.138Z,1.43
2019-01-18T13:03:08.435Z,1.57
2019-01-18T13:05:56.387Z,1.57
2019-01-18T13:08:25.650Z,1.10
2019-01-18T13:10:54.936Z,1.37
2019-01-18T13:13:24.207Z,1.43
2019-01-18T13:16:26.280Z,1.50
2019-01-18T13:18:58.517Z,1.57
2019-01-18T13:21:27.821Z,1.10
2019-01-18T13:23:57.089Z,1.20
2019-01-18T13:26:26.372Z,1.30
2019-01-18T13:28:55.650Z,1.27
2019-01-18T13:31:25.102Z,1.60
2019-01-18T13:33:54.418Z,1.40
2019-01-18T13:36:23.726Z,2.03
2019-01-18T13:38:53.018Z,1.57
2019-01-18T13:41:22.490Z,1.50
2019-01-18T13:43:51.746Z,1.10
2019-01-18T13:46:21.152Z,1.40
2019-01-18T13:48:51.521Z,1.30
2019-01-18T13:51:21.017Z,1.37
2019-01-18T13:53:50.325Z,1.47
2019-01-18T13:56:19.591Z,1.33
2019-01-18T13:58:48.877Z,1.43
2019-01-18T14:01:19.252Z,1.57
2019-01-18T14:03:48.522Z,1.20
2019-01-18T14:06:17.794Z,1.30
2019-01-18T14:08:47.077Z,1.40
2019-01-18T14:11:17.820Z,1.30
2019-01-18T14:13:47.147Z,1.10
2019-01-18T14:16:16.764Z,1.20
2019-01-18T14:18:46.103Z,1.27
2019-01-18T14:21:15.437Z,1.00
2019-01-18T14:23:44.708Z,1.33
2019-01-18T14:26:13.978Z,1.07
2019-01-18T14:28:43.247Z,1.00
2019-01-18T14:31:12.551Z,1.40
2019-01-18T14:33:41.838Z,1.00
2019-01-18T14:36:14.666Z,1.10
2019-01-18T14:39:04.258Z,1.10
2019-01-18T14:41:33.580Z,0.67
2019-01-18T14:44:02.871Z,1.00
2019-01-18T14:46:32.162Z,0.80
2019-01-18T14:49:01.416Z,0.80
2019-01-18T14:51:30.781Z,0.80
2019-01-18T14:54:00.080Z,0.80
2019-01-18T14:56:29.381Z,0.73
2019-01-18T14:58:58.684Z,0.60
2019-01-18T15:01:27.926Z,0.90
2019-01-18T15:03:57.195Z,0.67
2019-01-18T15:06:27.930Z,0.80
2019-01-18T15:08:57.186Z,1.00
2019-01-18T15:11:26.469Z,0.90
2019-01-18T15:13:55.742Z,0.80
2019-01-18T15:16:25.094Z,0.80
2019-01-18T15:18:54.376Z,1.23
2019-01-18T15:21:23.632Z,1.20
2019-01-18T15:23:52.944Z,1.00
2019-01-18T15:26:22.202Z,0.97
2019-01-18T15:28:51.475Z,1.37
2019-01-18T15:31:20.755Z,1.40
2019-01-18T15:33:50.011Z,1.40
2019-01-18T15:36:19.282Z,1.50
2019-01-18T15:38:48.569Z,1.30
2019-01-18T15:41:17.842Z,1.50
2019-01-18T15:43:48.597Z,1.60
2019-01-18T15:46:17.874Z,1.70
2019-01-18T15:48:47.295Z,1.40
2019-01-18T15:51:16.577Z,1.50
2019-01-18T15:53:47.664Z,1.63
2019-01-18T15:56:17.075Z,1.80
2019-01-18T15:58:46.339Z,1.73
2019-01-18T16:01:15.674Z,1.60
2019-01-18T16:03:45.010Z,1.53
2019-01-18T16:06:14.316Z,1.50
2019-01-18T16:08:45.370Z,1.60
2019-01-18T16:11:14.624Z,1.90
2019-01-18T16:13:46.704Z,2.33
2019-01-18T16:16:59.724Z,2.43
2019-01-18T16:19:29.128Z,6.03
2019-01-18T16:21:58.502Z,3.80
2019-01-18T16:24:27.853Z,6.37
2019-01-18T16:26:58.729Z,4.57
2019-01-18T16:29:28.105Z,2.97
2019-01-18T16:31:58.758Z,2.73
2019-01-18T16:34:28.071Z,2.80
2019-01-18T16:36:57.320Z,2.73
2019-01-18T16:39:28.118Z,2.83
2019-01-18T16:41:57.434Z,2.77
2019-01-18T16:44:26.792Z,5.03
2019-01-18T16:46:56.140Z,5.43
2019-01-18T16:49:25.397Z,5.03
2019-01-18T16:51:54.685Z,4.80
2019-01-18T16:54:23.990Z,4.90
2019-01-18T16:56:56.367Z,3.70
2019-01-18T16:59:26.219Z,4.97
2019-01-18T17:01:55.535Z,4.53
2019-01-18T17:04:24.828Z,5.87
2019-01-18T17:06:54.926Z,5.47
2019-01-18T17:09:24.621Z,6.80
2019-01-18T17:11:53.887Z,6.97
2019-01-18T17:14:24.995Z,6.07
2019-01-18T17:16:55.397Z,6.70
2019-01-18T17:19:24.667Z,6.27
2019-01-18T17:21:54.172Z,6.33
2019-01-18T17:24:23.491Z,5.67
2019-01-18T17:26:52.771Z,5.83
2019-01-18T17:29:22.143Z,5.50
2019-01-18T17:31:51.415Z,6.23
2019-01-18T17:34:20.692Z,6.40
2019-01-18T17:37:17.104Z,5.83
2019-01-18T17:39:57.524Z,5.87
2019-01-18T17:42:43.544Z,5.90
2019-01-18T17:45:49.876Z,6.50
2019-01-18T17:49:01.260Z,7.37
2019-01-18T17:51:59.019Z,7.40
2019-01-18T17:54:44.267Z,8.00
2019-01-18T17:58:09.640Z,8.77
2019-01-18T18:01:04.032Z,9.80
2019-01-18T18:04:16.268Z,11.60
2019-01-18T18:06:51.822Z,16.17
2019-01-18T18:09:47.637Z,12.63
2019-01-18T18:12:53.440Z,8.63
2019-01-18T18:16:04.096Z,10.10
2019-01-18T18:18:52.993Z,10.17
2019-01-18T18:22:13.059Z,10.53
2019-01-18T18:25:12.399Z,10.00
2019-01-18T18:28:21.971Z,9.83
2019-01-18T18:31:17.084Z,9.07
2019-01-18T18:34:30.558Z,18.17
2019-01-18T18:37:13.213Z,10.13
2019-01-18T18:40:19.530Z,9.17
2019-01-18T18:43:22.113Z,7.93
2019-01-18T18:46:29.478Z,9.67
2019-01-18T18:49:29.809Z,7.97
2019-01-18T18:53:04.278Z,7.67
2019-01-18T18:56:04.811Z,7.47
2019-01-18T18:59:20.913Z,7.37
2019-01-18T19:02:35.044Z,6.67
2019-01-18T19:05:30.695Z,7.60
2019-01-18T19:08:46.761Z,8.17
2019-01-18T19:11:52.029Z,8.27
2019-01-18T19:15:08.730Z,8.30
2019-01-18T19:18:07.872Z,8.13
2019-01-18T19:21:23.060Z,7.23
2019-01-18T19:24:45.094Z,7.93
2019-01-18T19:27:56.510Z,7.27
2019-01-18T19:31:22.154Z,6.17
2019-01-18T19:34:17.325Z,8.20
2019-01-18T19:37:28.754Z,7.60
2019-01-18T19:40:38.571Z,7.57
2019-01-18T19:43:57.638Z,8.10
2019-01-18T19:46:52.729Z,8.73
2019-01-18T19:49:51.064Z,9.20
2019-01-18T19:53:07.492Z,8.63
2019-01-18T19:56:05.202Z,7.60
2019-01-18T19:59:14.649Z,8.30
2019-01-18T20:02:20.741Z,8.20
2019-01-18T20:05:30.312Z,7.97
2019-01-18T20:08:42.979Z,7.37
2019-01-18T20:11:40.241Z,7.20
2019-01-18T20:14:50.226Z,6.83
2019-01-18T20:17:34.344Z,7.10
2019-01-18T20:20:53.189Z,7.10
2019-01-18T20:24:19.096Z,6.70
2019-01-18T20:27:14.117Z,7.47
2019-01-18T20:30:20.677Z,8.97
2019-01-18T20:33:20.363Z,9.07
2019-01-18T20:36:30.580Z,9.63
2019-01-18T20:39:28.800Z,9.17
2019-01-18T20:42:28.290Z,8.50
2019-01-18T20:45:17.148Z,8.93
2019-01-18T20:48:15.494Z,8.10
2019-01-18T20:51:06.419Z,7.80
2019-01-18T20:54:16.582Z,7.87
2019-01-18T20:57:12.933Z,8.20
2019-01-18T20:59:59.386Z,9.00
2019-01-18T21:02:57.400Z,8.43
2019-01-18T21:05:57.833Z,7.50
2019-01-18T21:09:14.179Z,7.03
2019-01-18T21:12:02.576Z,6.53
2019-01-18T21:15:14.503Z,7.00
2019-01-18T21:18:21.879Z,6.77
2019-01-18T21:21:38.155Z,6.63
2019-01-18T21:24:40.092Z,7.70
2019-01-18T21:27:39.956Z,7.50
2019-01-18T21:31:01.495Z,7.27
2019-01-18T21:34:23.590Z,6.67
2019-01-18T21:37:22.639Z,6.57
2019-01-18T21:40:31.760Z,7.30
2019-01-18T21:43:21.834Z,6.57
2019-01-18T21:46:53.700Z,6.67
2019-01-18T21:49:39.195Z,5.30
2019-01-18T21:52:46.576Z,6.80
2019-01-18T21:55:25.112Z,6.33
2019-01-18T21:58:35.372Z,6.50
2019-01-18T22:01:49.596Z,6.27
2019-01-18T22:05:09.031Z,5.13
2019-01-18T22:08:04.455Z,6.13
2019-01-18T22:11:05.623Z,5.63
2019-01-18T22:14:22.358Z,6.00
2019-01-18T22:17:31.863Z,4.80
2019-01-18T22:20:38.480Z,4.40
2019-01-18T22:23:29.404Z,4.97
2019-01-18T22:26:30.858Z,4.10
2019-01-18T22:29:50.440Z,3.87
2019-01-18T22:32:57.855Z,3.13
2019-01-18T22:36:12.503Z,3.77
2019-01-18T22:39:00.669Z,3.87
2019-01-18T22:42:14.783Z,4.40
2019-01-18T22:44:57.171Z,3.93
2019-01-18T22:48:08.311Z,4.63
2019-01-18T22:51:23.372Z,4.40
2019-01-18T22:54:22.906Z,4.50
2019-01-18T22:57:39.419Z,5.10
2019-01-18T23:01:06.251Z,3.37
2019-01-18T23:04:27.706Z,3.60
2019-01-18T23:07:34.285Z,4.13
2019-01-18T23:10:46.559Z,4.60
2019-01-18T23:13:51.745Z,4.10
2019-01-18T23:16:59.597Z,4.47
2019-01-18T23:20:25.473Z,5.07
2019-01-18T23:23:57.040Z,5.70
2019-01-18T23:27:07.931Z,4.90
2019-01-18T23:29:47.932Z,5.57
2019-01-18T23:32:37.109Z,5.20
2019-01-18T23:35:28.302Z,5.27
2019-01-18T23:38:31.004Z,5.37
2019-01-18T23:41:27.798Z,5.60
2019-01-18T23:44:31.941Z,5.00
2019-01-18T23:47:26.237Z,4.90
2019-01-18T23:50:12.481Z,5.67
2019-01-18T23:53:09.474Z,5.17
2019-01-18T23:56:22.604Z,5.97
2019-01-18T23:59:08.394Z,5.17
